sensor_id;sensor_type;location;lat;lon;timestamp;P1;durP1;ratioP1;P2;durP2;ratioP2
75898;SDS011;64576;50.460;4.866;2023-05-14T00:02:06;135.40;;;52.45;;
75898;SDS011;64576;50.460;4.866;2023-05-14T00:04:31;126.82;;;49.22;;
75898;SDS011;64576;50.460;4.866;2023-05-14T00:06:56;136.60;;;49.22;;
75898;SDS011;64576;50.460;4.866;2023-05-14T00:09:22;137.60;;;50.97;;
75898;SDS011;64576;50.460;4.866;2023-05-14T00:11:48;151.30;;;53.03;;
75898;SDS011;64576;50.460;4.866;2023-05-14T00:14:13;153.40;;;53.90;;
75898;SDS011;64576;50.460;4.866;2023-05-14T00:16:39;141.60;;;55.35;;
75898;SDS011;64576;50.460;4.866;2023-05-14T00:19:04;139.60;;;52.40;;
75898;SDS011;64576;50.460;4.866;2023-05-14T00:21:30;144.00;;;53.90;;
75898;SDS011;64576;50.460;4.866;2023-05-14T00:23:56;161.57;;;56.28;;
75898;SDS011;64576;50.460;4.866;2023-05-14T00:26:21;160.52;;;54.00;;
75898;SDS011;64576;50.460;4.866;2023-05-14T00:28:47;179.73;;;56.90;;
75898;SDS011;64576;50.460;4.866;2023-05-14T00:31:13;165.35;;;55.38;;
75898;SDS011;64576;50.460;4.866;2023-05-14T00:33:38;200.60;;;63.40;;
75898;SDS011;64576;50.460;4.866;2023-05-14T00:36:04;183.25;;;60.10;;
75898;SDS011;64576;50.460;4.866;2023-05-14T00:38:30;199.20;;;61.33;;
75898;SDS011;64576;50.460;4.866;2023-05-14T00:40:55;202.00;;;65.10;;
75898;SDS011;64576;50.460;4.866;2023-05-14T00:43:20;176.65;;;59.55;;
75898;SDS011;64576;50.460;4.866;2023-05-14T00:45:48;187.70;;;64.45;;
75898;SDS011;64576;50.460;4.866;2023-05-14T00:48:15;222.73;;;65.45;;
75898;SDS011;64576;50.460;4.866;2023-05-14T00:50:41;182.63;;;61.22;;
75898;SDS011;64576;50.460;4.866;2023-05-14T00:53:06;188.45;;;62.15;;
75898;SDS011;64576;50.460;4.866;2023-05-14T00:55:35;208.80;;;62.25;;
75898;SDS011;64576;50.460;4.866;2023-05-14T00:58:03;205.20;;;61.97;;
75898;SDS011;64576;50.460;4.866;2023-05-14T01:00:31;212.70;;;64.50;;
75898;SDS011;64576;50.460;4.866;2023-05-14T01:02:56;188.15;;;61.45;;
75898;SDS011;64576;50.460;4.866;2023-05-14T01:05:25;198.48;;;62.85;;
75898;SDS011;64576;50.460;4.866;2023-05-14T01:13:07;209.40;;;69.30;;
75898;SDS011;64576;50.460;4.866;2023-05-14T01:15:38;212.60;;;65.65;;
75898;SDS011;64576;50.460;4.866;2023-05-14T01:18:06;208.35;;;68.22;;
75898;SDS011;64576;50.460;4.866;2023-05-14T01:20:33;188.68;;;62.45;;
75898;SDS011;64576;50.460;4.866;2023-05-14T01:22:59;222.05;;;70.13;;
75898;SDS011;64576;50.460;4.866;2023-05-14T01:25:24;186.85;;;57.08;;
75898;SDS011;64576;50.460;4.866;2023-05-14T01:33:19;197.00;;;62.97;;
75898;SDS011;64576;50.460;4.866;2023-05-14T01:35:46;201.07;;;64.03;;
75898;SDS011;64576;50.460;4.866;2023-05-14T01:38:13;186.85;;;62.75;;
75898;SDS011;64576;50.460;4.866;2023-05-14T01:40:41;191.75;;;61.20;;
75898;SDS011;64576;50.460;4.866;2023-05-14T01:43:09;188.23;;;60.13;;
75898;SDS011;64576;50.460;4.866;2023-05-14T01:45:35;182.02;;;62.03;;
75898;SDS011;64576;50.460;4.866;2023-05-14T01:48:01;173.98;;;61.05;;
75898;SDS011;64576;50.460;4.866;2023-05-14T01:50:26;202.88;;;65.43;;
75898;SDS011;64576;50.460;4.866;2023-05-14T01:52:52;191.43;;;64.00;;
75898;SDS011;64576;50.460;4.866;2023-05-14T01:55:20;206.35;;;67.68;;
75898;SDS011;64576;50.460;4.866;2023-05-14T01:57:46;167.10;;;59.38;;
75898;SDS011;64576;50.460;4.866;2023-05-14T02:00:11;196.07;;;63.50;;
75898;SDS011;64576;50.460;4.866;2023-05-14T02:02:37;222.13;;;72.55;;
75898;SDS011;64576;50.460;4.866;2023-05-14T02:05:03;198.13;;;65.57;;
75898;SDS011;64576;50.460;4.866;2023-05-14T02:07:28;195.48;;;65.97;;
75898;SDS011;64576;50.460;4.866;2023-05-14T02:09:54;217.73;;;70.68;;
75898;SDS011;64576;50.460;4.866;2023-05-14T02:12:19;190.27;;;64.70;;
75898;SDS011;64576;50.460;4.866;2023-05-14T02:14:45;209.00;;;72.10;;
75898;SDS011;64576;50.460;4.866;2023-05-14T02:17:10;202.45;;;65.75;;
75898;SDS011;64576;50.460;4.866;2023-05-14T02:19:36;207.32;;;68.85;;
75898;SDS011;64576;50.460;4.866;2023-05-14T02:22:01;189.90;;;61.53;;
75898;SDS011;64576;50.460;4.866;2023-05-14T02:24:27;222.25;;;74.43;;
75898;SDS011;64576;50.460;4.866;2023-05-14T02:26:52;195.65;;;65.93;;
75898;SDS011;64576;50.460;4.866;2023-05-14T02:29:18;204.80;;;65.40;;
75898;SDS011;64576;50.460;4.866;2023-05-14T02:31:43;203.52;;;66.72;;
75898;SDS011;64576;50.460;4.866;2023-05-14T02:34:08;209.93;;;65.03;;
75898;SDS011;64576;50.460;4.866;2023-05-14T02:36:34;223.75;;;73.72;;
75898;SDS011;64576;50.460;4.866;2023-05-14T02:38:59;221.82;;;67.88;;
75898;SDS011;64576;50.460;4.866;2023-05-14T02:41:25;206.20;;;65.75;;
75898;SDS011;64576;50.460;4.866;2023-05-14T02:43:51;227.82;;;71.00;;
75898;SDS011;64576;50.460;4.866;2023-05-14T02:46:17;222.30;;;74.68;;
75898;SDS011;64576;50.460;4.866;2023-05-14T02:48:42;202.00;;;66.43;;
75898;SDS011;64576;50.460;4.866;2023-05-14T02:51:08;205.88;;;65.30;;
75898;SDS011;64576;50.460;4.866;2023-05-14T02:53:34;212.15;;;63.88;;
75898;SDS011;64576;50.460;4.866;2023-05-14T02:55:59;211.88;;;65.50;;
75898;SDS011;64576;50.460;4.866;2023-05-14T02:58:25;211.85;;;69.53;;
75898;SDS011;64576;50.460;4.866;2023-05-14T03:00:50;214.60;;;67.35;;
75898;SDS011;64576;50.460;4.866;2023-05-14T03:03:17;190.65;;;63.72;;
75898;SDS011;64576;50.460;4.866;2023-05-14T03:05:43;209.50;;;68.18;;
75898;SDS011;64576;50.460;4.866;2023-05-14T03:08:08;200.43;;;67.68;;
75898;SDS011;64576;50.460;4.866;2023-05-14T03:10:33;188.50;;;65.28;;
75898;SDS011;64576;50.460;4.866;2023-05-14T03:12:59;182.30;;;61.30;;
75898;SDS011;64576;50.460;4.866;2023-05-14T03:15:24;208.98;;;66.30;;
75898;SDS011;64576;50.460;4.866;2023-05-14T03:17:50;189.68;;;60.55;;
75898;SDS011;64576;50.460;4.866;2023-05-14T03:20:15;180.25;;;63.78;;
75898;SDS011;64576;50.460;4.866;2023-05-14T03:22:40;194.88;;;63.28;;
75898;SDS011;64576;50.460;4.866;2023-05-14T03:25:06;189.52;;;60.50;;
75898;SDS011;64576;50.460;4.866;2023-05-14T03:27:32;185.70;;;66.45;;
75898;SDS011;64576;50.460;4.866;2023-05-14T03:29:58;194.73;;;63.88;;
75898;SDS011;64576;50.460;4.866;2023-05-14T03:32:24;187.48;;;65.75;;
75898;SDS011;64576;50.460;4.866;2023-05-14T03:34:49;181.75;;;61.00;;
75898;SDS011;64576;50.460;4.866;2023-05-14T03:37:14;178.85;;;60.67;;
75898;SDS011;64576;50.460;4.866;2023-05-14T03:39:40;157.20;;;61.55;;
75898;SDS011;64576;50.460;4.866;2023-05-14T03:42:05;168.60;;;57.03;;
75898;SDS011;64576;50.460;4.866;2023-05-14T03:44:31;166.93;;;57.65;;
75898;SDS011;64576;50.460;4.866;2023-05-14T03:46:56;164.90;;;60.10;;
75898;SDS011;64576;50.460;4.866;2023-05-14T03:49:22;168.05;;;62.00;;
75898;SDS011;64576;50.460;4.866;2023-05-14T03:51:47;158.85;;;55.95;;
75898;SDS011;64576;50.460;4.866;2023-05-14T03:54:12;158.30;;;56.85;;
75898;SDS011;64576;50.460;4.866;2023-05-14T03:56:38;160.82;;;57.45;;
75898;SDS011;64576;50.460;4.866;2023-05-14T03:59:03;166.52;;;59.38;;
75898;SDS011;64576;50.460;4.866;2023-05-14T04:01:29;159.50;;;56.10;;
75898;SDS011;64576;50.460;4.866;2023-05-14T04:03:54;145.40;;;53.90;;
75898;SDS011;64576;50.460;4.866;2023-05-14T04:06:19;152.73;;;56.40;;
75898;SDS011;64576;50.460;4.866;2023-05-14T04:08:45;140.00;;;51.70;;
75898;SDS011;64576;50.460;4.866;2023-05-14T04:11:10;150.30;;;57.55;;
75898;SDS011;64576;50.460;4.866;2023-05-14T04:13:35;131.68;;;51.92;;
75898;SDS011;64576;50.460;4.866;2023-05-14T04:16:01;145.32;;;52.17;;
75898;SDS011;64576;50.460;4.866;2023-05-14T04:18:26;137.82;;;52.80;;
75898;SDS011;64576;50.460;4.866;2023-05-14T04:20:52;143.40;;;54.92;;
75898;SDS011;64576;50.460;4.866;2023-05-14T04:23:17;129.27;;;50.17;;
75898;SDS011;64576;50.460;4.866;2023-05-14T04:25:42;141.18;;;55.42;;
75898;SDS011;64576;50.460;4.866;2023-05-14T04:28:08;147.98;;;52.33;;
75898;SDS011;64576;50.460;4.866;2023-05-14T04:30:33;143.80;;;53.13;;
75898;SDS011;64576;50.460;4.866;2023-05-14T04:32:59;125.07;;;48.45;;
75898;SDS011;64576;50.460;4.866;2023-05-14T04:35:24;120.82;;;48.58;;
75898;SDS011;64576;50.460;4.866;2023-05-14T04:37:50;140.20;;;51.72;;
75898;SDS011;64576;50.460;4.866;2023-05-14T04:40:15;135.20;;;49.58;;
75898;SDS011;64576;50.460;4.866;2023-05-14T04:42:41;134.35;;;48.53;;
75898;SDS011;64576;50.460;4.866;2023-05-14T04:45:07;137.55;;;50.45;;
75898;SDS011;64576;50.460;4.866;2023-05-14T04:47:33;145.00;;;52.60;;
75898;SDS011;64576;50.460;4.866;2023-05-14T04:49:59;137.65;;;54.25;;
75898;SDS011;64576;50.460;4.866;2023-05-14T04:52:24;132.95;;;52.03;;
75898;SDS011;64576;50.460;4.866;2023-05-14T04:54:50;131.43;;;48.30;;
75898;SDS011;64576;50.460;4.866;2023-05-14T04:57:15;144.80;;;50.00;;
75898;SDS011;64576;50.460;4.866;2023-05-14T04:59:40;133.95;;;49.20;;
75898;SDS011;64576;50.460;4.866;2023-05-14T05:02:06;145.85;;;48.95;;
75898;SDS011;64576;50.460;4.866;2023-05-14T05:04:31;139.80;;;51.88;;
75898;SDS011;64576;50.460;4.866;2023-05-14T05:06:57;127.88;;;50.55;;
75898;SDS011;64576;50.460;4.866;2023-05-14T05:09:22;136.23;;;50.72;;
75898;SDS011;64576;50.460;4.866;2023-05-14T05:11:47;129.93;;;51.10;;
75898;SDS011;64576;50.460;4.866;2023-05-14T05:14:13;126.63;;;46.35;;
75898;SDS011;64576;50.460;4.866;2023-05-14T05:16:38;135.05;;;49.05;;
75898;SDS011;64576;50.460;4.866;2023-05-14T05:19:04;131.90;;;48.72;;
75898;SDS011;64576;50.460;4.866;2023-05-14T05:21:29;128.20;;;50.83;;
75898;SDS011;64576;50.460;4.866;2023-05-14T05:23:55;118.57;;;48.55;;
75898;SDS011;64576;50.460;4.866;2023-05-14T05:26:20;111.95;;;46.63;;
75898;SDS011;64576;50.460;4.866;2023-05-14T05:28:46;110.93;;;45.80;;
75898;SDS011;64576;50.460;4.866;2023-05-14T05:31:11;112.43;;;44.33;;
75898;SDS011;64576;50.460;4.866;2023-05-14T05:33:37;113.63;;;43.97;;
75898;SDS011;64576;50.460;4.866;2023-05-14T05:36:02;126.45;;;46.45;;
75898;SDS011;64576;50.460;4.866;2023-05-14T05:38:28;109.28;;;44.13;;
75898;SDS011;64576;50.460;4.866;2023-05-14T05:40:53;118.20;;;43.67;;
75898;SDS011;64576;50.460;4.866;2023-05-14T05:43:19;104.53;;;43.08;;
75898;SDS011;64576;50.460;4.866;2023-05-14T05:45:44;115.20;;;45.63;;
75898;SDS011;64576;50.460;4.866;2023-05-14T05:48:10;116.90;;;45.42;;
75898;SDS011;64576;50.460;4.866;2023-05-14T05:50:35;103.25;;;46.20;;
75898;SDS011;64576;50.460;4.866;2023-05-14T05:53:01;105.30;;;43.28;;
75898;SDS011;64576;50.460;4.866;2023-05-14T05:55:27;125.13;;;44.00;;
75898;SDS011;64576;50.460;4.866;2023-05-14T05:57:53;113.65;;;44.55;;
75898;SDS011;64576;50.460;4.866;2023-05-14T06:00:18;110.43;;;42.80;;
75898;SDS011;64576;50.460;4.866;2023-05-14T06:02:45;124.75;;;45.65;;
75898;SDS011;64576;50.460;4.866;2023-05-14T06:05:10;124.28;;;44.67;;
75898;SDS011;64576;50.460;4.866;2023-05-14T06:07:36;103.65;;;40.20;;
75898;SDS011;64576;50.460;4.866;2023-05-14T06:10:02;108.78;;;43.60;;
75898;SDS011;64576;50.460;4.866;2023-05-14T06:12:27;116.10;;;47.53;;
75898;SDS011;64576;50.460;4.866;2023-05-14T06:14:53;120.57;;;48.55;;
75898;SDS011;64576;50.460;4.866;2023-05-14T06:17:21;104.40;;;44.00;;
75898;SDS011;64576;50.460;4.866;2023-05-14T06:19:47;111.82;;;43.47;;
75898;SDS011;64576;50.460;4.866;2023-05-14T06:22:12;116.15;;;45.10;;
75898;SDS011;64576;50.460;4.866;2023-05-14T06:24:38;109.93;;;43.40;;
75898;SDS011;64576;50.460;4.866;2023-05-14T06:27:04;105.85;;;43.83;;
75898;SDS011;64576;50.460;4.866;2023-05-14T06:29:29;107.57;;;44.95;;
75898;SDS011;64576;50.460;4.866;2023-05-14T06:32:01;111.03;;;42.72;;
75898;SDS011;64576;50.460;4.866;2023-05-14T06:34:27;111.53;;;46.33;;
75898;SDS011;64576;50.460;4.866;2023-05-14T06:36:53;114.82;;;44.60;;
75898;SDS011;64576;50.460;4.866;2023-05-14T06:39:18;119.28;;;44.22;;
75898;SDS011;64576;50.460;4.866;2023-05-14T06:41:43;109.88;;;43.72;;
75898;SDS011;64576;50.460;4.866;2023-05-14T06:44:09;116.22;;;45.33;;
75898;SDS011;64576;50.460;4.866;2023-05-14T06:46:35;101.18;;;42.72;;
75898;SDS011;64576;50.460;4.866;2023-05-14T06:49:00;114.75;;;44.95;;
75898;SDS011;64576;50.460;4.866;2023-05-14T06:51:26;116.53;;;43.63;;
75898;SDS011;64576;50.460;4.866;2023-05-14T06:53:51;125.63;;;46.80;;
75898;SDS011;64576;50.460;4.866;2023-05-14T06:56:18;115.68;;;44.63;;
75898;SDS011;64576;50.460;4.866;2023-05-14T06:58:43;112.95;;;43.92;;
75898;SDS011;64576;50.460;4.866;2023-05-14T07:01:09;102.88;;;45.20;;
75898;SDS011;64576;50.460;4.866;2023-05-14T07:03:34;111.05;;;43.47;;
75898;SDS011;64576;50.460;4.866;2023-05-14T07:06:00;115.22;;;44.22;;
75898;SDS011;64576;50.460;4.866;2023-05-14T07:08:25;118.75;;;43.97;;
75898;SDS011;64576;50.460;4.866;2023-05-14T07:10:50;112.07;;;42.80;;
75898;SDS011;64576;50.460;4.866;2023-05-14T07:13:16;104.72;;;44.00;;
75898;SDS011;64576;50.460;4.866;2023-05-14T07:15:41;104.00;;;44.95;;
75898;SDS011;64576;50.460;4.866;2023-05-14T07:18:06;113.15;;;44.17;;
75898;SDS011;64576;50.460;4.866;2023-05-14T07:20:32;108.40;;;41.38;;
75898;SDS011;64576;50.460;4.866;2023-05-14T07:22:58;117.97;;;44.25;;
75898;SDS011;64576;50.460;4.866;2023-05-14T07:25:23;114.43;;;44.17;;
75898;SDS011;64576;50.460;4.866;2023-05-14T07:27:48;114.30;;;42.53;;
75898;SDS011;64576;50.460;4.866;2023-05-14T07:30:14;109.68;;;42.67;;
75898;SDS011;64576;50.460;4.866;2023-05-14T07:32:39;119.97;;;42.08;;
75898;SDS011;64576;50.460;4.866;2023-05-14T07:35:05;97.10;;;40.67;;
75898;SDS011;64576;50.460;4.866;2023-05-14T07:37:30;102.18;;;39.92;;
75898;SDS011;64576;50.460;4.866;2023-05-14T07:39:56;105.43;;;40.72;;
75898;SDS011;64576;50.460;4.866;2023-05-14T07:42:21;90.45;;;37.97;;
75898;SDS011;64576;50.460;4.866;2023-05-14T07:44:47;107.63;;;42.15;;
75898;SDS011;64576;50.460;4.866;2023-05-14T07:47:12;104.57;;;42.15;;
75898;SDS011;64576;50.460;4.866;2023-05-14T07:49:37;104.65;;;39.15;;
75898;SDS011;64576;50.460;4.866;2023-05-14T07:52:03;91.78;;;38.33;;
75898;SDS011;64576;50.460;4.866;2023-05-14T07:54:28;96.28;;;39.90;;
75898;SDS011;64576;50.460;4.866;2023-05-14T07:56:54;98.32;;;40.28;;
75898;SDS011;64576;50.460;4.866;2023-05-14T07:59:19;100.70;;;39.63;;
75898;SDS011;64576;50.460;4.866;2023-05-14T08:01:45;104.05;;;38.78;;
75898;SDS011;64576;50.460;4.866;2023-05-14T08:04:10;98.32;;;42.42;;
75898;SDS011;64576;50.460;4.866;2023-05-14T08:06:36;108.50;;;40.53;;
75898;SDS011;64576;50.460;4.866;2023-05-14T08:09:02;107.07;;;42.70;;
75898;SDS011;64576;50.460;4.866;2023-05-14T08:11:29;100.57;;;43.78;;
75898;SDS011;64576;50.460;4.866;2023-05-14T08:13:55;103.53;;;42.85;;
75898;SDS011;64576;50.460;4.866;2023-05-14T08:16:20;108.47;;;42.80;;
75898;SDS011;64576;50.460;4.866;2023-05-14T08:18:46;106.93;;;41.95;;
75898;SDS011;64576;50.460;4.866;2023-05-14T08:21:12;100.82;;;41.72;;
75898;SDS011;64576;50.460;4.866;2023-05-14T08:23:37;110.85;;;40.10;;
75898;SDS011;64576;50.460;4.866;2023-05-14T08:26:03;96.80;;;37.55;;
75898;SDS011;64576;50.460;4.866;2023-05-14T08:28:28;116.90;;;40.25;;
75898;SDS011;64576;50.460;4.866;2023-05-14T08:30:53;107.38;;;39.17;;
75898;SDS011;64576;50.460;4.866;2023-05-14T08:33:19;103.55;;;41.28;;
75898;SDS011;64576;50.460;4.866;2023-05-14T08:35:44;101.57;;;38.80;;
75898;SDS011;64576;50.460;4.866;2023-05-14T08:38:10;102.35;;;38.72;;
75898;SDS011;64576;50.460;4.866;2023-05-14T08:40:35;102.00;;;39.55;;
75898;SDS011;64576;50.460;4.866;2023-05-14T08:43:01;113.82;;;41.17;;
75898;SDS011;64576;50.460;4.866;2023-05-14T08:45:29;96.40;;;39.83;;
75898;SDS011;64576;50.460;4.866;2023-05-14T08:47:58;119.00;;;42.27;;
75898;SDS011;64576;50.460;4.866;2023-05-14T08:50:25;92.20;;;37.45;;
75898;SDS011;64576;50.460;4.866;2023-05-14T08:52:54;89.00;;;37.67;;
75898;SDS011;64576;50.460;4.866;2023-05-14T08:55:19;92.40;;;37.92;;
75898;SDS011;64576;50.460;4.866;2023-05-14T08:57:45;94.78;;;40.00;;
75898;SDS011;64576;50.460;4.866;2023-05-14T09:00:10;87.68;;;35.35;;
75898;SDS011;64576;50.460;4.866;2023-05-14T09:02:36;94.22;;;38.05;;
75898;SDS011;64576;50.460;4.866;2023-05-14T09:05:04;91.82;;;38.33;;
75898;SDS011;64576;50.460;4.866;2023-05-14T09:07:31;100.25;;;37.70;;
75898;SDS011;64576;50.460;4.866;2023-05-14T09:09:57;100.63;;;38.35;;
75898;SDS011;64576;50.460;4.866;2023-05-14T09:12:23;97.47;;;39.88;;
75898;SDS011;64576;50.460;4.866;2023-05-14T09:14:49;95.85;;;38.55;;
75898;SDS011;64576;50.460;4.866;2023-05-14T09:17:15;82.32;;;37.92;;
75898;SDS011;64576;50.460;4.866;2023-05-14T09:19:41;91.13;;;37.15;;
75898;SDS011;64576;50.460;4.866;2023-05-14T09:22:08;101.05;;;41.10;;
75898;SDS011;64576;50.460;4.866;2023-05-14T09:24:35;87.88;;;38.67;;
75898;SDS011;64576;50.460;4.866;2023-05-14T09:27:02;86.15;;;35.15;;
75898;SDS011;64576;50.460;4.866;2023-05-14T09:29:29;90.68;;;37.83;;
75898;SDS011;64576;50.460;4.866;2023-05-14T09:31:55;83.10;;;35.88;;
75898;SDS011;64576;50.460;4.866;2023-05-14T09:34:22;82.53;;;36.30;;
75898;SDS011;64576;50.460;4.866;2023-05-14T09:37:02;88.60;;;40.80;;
75898;SDS011;64576;50.460;4.866;2023-05-14T09:39:27;92.25;;;37.75;;
75898;SDS011;64576;50.460;4.866;2023-05-14T09:41:54;88.25;;;40.67;;
75898;SDS011;64576;50.460;4.866;2023-05-14T09:44:20;77.55;;;31.02;;
75898;SDS011;64576;50.460;4.866;2023-05-14T09:46:46;86.85;;;38.92;;
75898;SDS011;64576;50.460;4.866;2023-05-14T09:49:12;87.40;;;39.72;;
75898;SDS011;64576;50.460;4.866;2023-05-14T09:51:38;91.25;;;38.50;;
75898;SDS011;64576;50.460;4.866;2023-05-14T09:54:04;92.57;;;39.50;;
75898;SDS011;64576;50.460;4.866;2023-05-14T09:56:31;80.53;;;36.50;;
75898;SDS011;64576;50.460;4.866;2023-05-14T09:58:56;80.57;;;35.33;;
75898;SDS011;64576;50.460;4.866;2023-05-14T10:01:22;82.47;;;36.03;;
75898;SDS011;64576;50.460;4.866;2023-05-14T10:03:49;82.50;;;36.03;;
75898;SDS011;64576;50.460;4.866;2023-05-14T10:06:15;76.60;;;34.47;;
75898;SDS011;64576;50.460;4.866;2023-05-14T10:08:45;79.28;;;34.42;;
75898;SDS011;64576;50.460;4.866;2023-05-14T10:11:13;81.25;;;35.33;;
75898;SDS011;64576;50.460;4.866;2023-05-14T10:13:44;78.38;;;34.25;;
75898;SDS011;64576;50.460;4.866;2023-05-14T10:16:16;73.93;;;35.83;;
75898;SDS011;64576;50.460;4.866;2023-05-14T10:18:45;69.40;;;34.03;;
75898;SDS011;64576;50.460;4.866;2023-05-14T10:21:13;77.55;;;34.22;;
75898;SDS011;64576;50.460;4.866;2023-05-14T10:23:39;74.60;;;36.50;;
75898;SDS011;64576;50.460;4.866;2023-05-14T10:26:05;88.90;;;38.08;;
75898;SDS011;64576;50.460;4.866;2023-05-14T10:28:32;73.60;;;35.03;;
75898;SDS011;64576;50.460;4.866;2023-05-14T10:30:59;74.82;;;34.72;;
75898;SDS011;64576;50.460;4.866;2023-05-14T10:33:24;74.88;;;35.40;;
75898;SDS011;64576;50.460;4.866;2023-05-14T10:36:03;74.25;;;34.85;;
75898;SDS011;64576;50.460;4.866;2023-05-14T10:38:32;71.45;;;35.15;;
75898;SDS011;64576;50.460;4.866;2023-05-14T10:40:59;75.90;;;35.25;;
75898;SDS011;64576;50.460;4.866;2023-05-14T10:43:29;68.53;;;34.70;;
75898;SDS011;64576;50.460;4.866;2023-05-14T10:45:55;78.53;;;36.85;;
75898;SDS011;64576;50.460;4.866;2023-05-14T10:48:23;75.10;;;34.55;;
75898;SDS011;64576;50.460;4.866;2023-05-14T10:50:49;81.15;;;35.00;;
75898;SDS011;64576;50.460;4.866;2023-05-14T10:53:15;75.53;;;35.33;;
75898;SDS011;64576;50.460;4.866;2023-05-14T10:55:41;70.47;;;33.92;;
75898;SDS011;64576;50.460;4.866;2023-05-14T10:58:08;77.43;;;34.15;;
75898;SDS011;64576;50.460;4.866;2023-05-14T11:00:37;80.82;;;34.42;;
75898;SDS011;64576;50.460;4.866;2023-05-14T11:03:03;68.55;;;35.22;;
75898;SDS011;64576;50.460;4.866;2023-05-14T11:05:30;80.03;;;36.35;;
75898;SDS011;64576;50.460;4.866;2023-05-14T11:07:56;71.32;;;34.58;;
75898;SDS011;64576;50.460;4.866;2023-05-14T11:10:22;69.75;;;34.35;;
75898;SDS011;64576;50.460;4.866;2023-05-14T11:12:50;72.63;;;35.08;;
75898;SDS011;64576;50.460;4.866;2023-05-14T11:15:20;71.88;;;32.88;;
75898;SDS011;64576;50.460;4.866;2023-05-14T11:17:46;64.00;;;32.63;;
75898;SDS011;64576;50.460;4.866;2023-05-14T11:20:13;74.05;;;33.20;;
75898;SDS011;64576;50.460;4.866;2023-05-14T11:22:39;68.03;;;34.58;;
75898;SDS011;64576;50.460;4.866;2023-05-14T11:25:05;67.68;;;33.25;;
75898;SDS011;64576;50.460;4.866;2023-05-14T11:27:33;74.47;;;34.67;;
75898;SDS011;64576;50.460;4.866;2023-05-14T11:29:59;74.38;;;35.35;;
75898;SDS011;64576;50.460;4.866;2023-05-14T11:32:25;66.22;;;33.10;;
75898;SDS011;64576;50.460;4.866;2023-05-14T11:34:51;69.63;;;36.58;;
75898;SDS011;64576;50.460;4.866;2023-05-14T11:37:16;65.00;;;32.85;;
75898;SDS011;64576;50.460;4.866;2023-05-14T11:39:45;59.30;;;32.40;;
75898;SDS011;64576;50.460;4.866;2023-05-14T11:42:12;58.15;;;32.15;;
75898;SDS011;64576;50.460;4.866;2023-05-14T11:44:40;54.72;;;30.27;;
75898;SDS011;64576;50.460;4.866;2023-05-14T11:47:08;66.25;;;32.88;;
75898;SDS011;64576;50.460;4.866;2023-05-14T11:49:35;59.92;;;34.50;;
75898;SDS011;64576;50.460;4.866;2023-05-14T11:52:02;58.92;;;33.28;;
75898;SDS011;64576;50.460;4.866;2023-05-14T11:54:30;61.22;;;34.00;;
75898;SDS011;64576;50.460;4.866;2023-05-14T11:56:57;69.78;;;36.13;;
75898;SDS011;64576;50.460;4.866;2023-05-14T11:59:24;58.55;;;31.88;;
75898;SDS011;64576;50.460;4.866;2023-05-14T12:01:51;66.15;;;33.75;;
75898;SDS011;64576;50.460;4.866;2023-05-14T12:04:17;52.28;;;29.33;;
75898;SDS011;64576;50.460;4.866;2023-05-14T12:06:46;56.22;;;31.70;;
75898;SDS011;64576;50.460;4.866;2023-05-14T12:09:12;58.10;;;33.80;;
75898;SDS011;64576;50.460;4.866;2023-05-14T12:11:40;58.00;;;31.33;;
75898;SDS011;64576;50.460;4.866;2023-05-14T12:14:18;56.88;;;31.13;;
75898;SDS011;64576;50.460;4.866;2023-05-14T12:16:45;61.30;;;33.00;;
75898;SDS011;64576;50.460;4.866;2023-05-14T12:19:13;53.88;;;31.52;;
75898;SDS011;64576;50.460;4.866;2023-05-14T12:21:39;58.80;;;32.20;;
75898;SDS011;64576;50.460;4.866;2023-05-14T12:24:11;58.28;;;31.25;;
75898;SDS011;64576;50.460;4.866;2023-05-14T12:26:38;61.65;;;34.30;;
75898;SDS011;64576;50.460;4.866;2023-05-14T12:29:04;61.10;;;31.80;;
75898;SDS011;64576;50.460;4.866;2023-05-14T12:31:33;61.47;;;34.38;;
75898;SDS011;64576;50.460;4.866;2023-05-14T12:34:00;58.65;;;30.08;;
75898;SDS011;64576;50.460;4.866;2023-05-14T12:36:27;51.25;;;29.10;;
75898;SDS011;64576;50.460;4.866;2023-05-14T12:38:59;55.53;;;31.90;;
75898;SDS011;64576;50.460;4.866;2023-05-14T12:41:26;52.67;;;31.00;;
75898;SDS011;64576;50.460;4.866;2023-05-14T12:43:51;61.83;;;34.42;;
75898;SDS011;64576;50.460;4.866;2023-05-14T12:46:17;50.72;;;29.05;;
75898;SDS011;64576;50.460;4.866;2023-05-14T12:48:42;44.90;;;27.92;;
75898;SDS011;64576;50.460;4.866;2023-05-14T12:51:09;45.05;;;26.90;;
75898;SDS011;64576;50.460;4.866;2023-05-14T12:53:34;49.85;;;30.42;;
75898;SDS011;64576;50.460;4.866;2023-05-14T12:56:00;59.40;;;30.58;;
75898;SDS011;64576;50.460;4.866;2023-05-14T12:58:25;52.28;;;29.85;;
75898;SDS011;64576;50.460;4.866;2023-05-14T13:00:51;54.67;;;32.28;;
75898;SDS011;64576;50.460;4.866;2023-05-14T13:03:16;49.15;;;29.33;;
75898;SDS011;64576;50.460;4.866;2023-05-14T13:05:41;54.08;;;31.67;;
75898;SDS011;64576;50.460;4.866;2023-05-14T13:08:07;49.63;;;27.45;;
75898;SDS011;64576;50.460;4.866;2023-05-14T13:10:33;44.50;;;25.40;;
75898;SDS011;64576;50.460;4.866;2023-05-14T13:12:59;56.30;;;31.58;;
75898;SDS011;64576;50.460;4.866;2023-05-14T13:15:26;54.33;;;28.77;;
75898;SDS011;64576;50.460;4.866;2023-05-14T13:17:52;44.28;;;25.98;;
75898;SDS011;64576;50.460;4.866;2023-05-14T13:20:17;51.00;;;28.95;;
75898;SDS011;64576;50.460;4.866;2023-05-14T13:22:43;49.28;;;27.20;;
75898;SDS011;64576;50.460;4.866;2023-05-14T13:25:08;46.30;;;25.85;;
75898;SDS011;64576;50.460;4.866;2023-05-14T13:27:34;44.42;;;24.27;;
75898;SDS011;64576;50.460;4.866;2023-05-14T13:30:00;49.80;;;27.15;;
75898;SDS011;64576;50.460;4.866;2023-05-14T13:32:25;47.92;;;25.75;;
75898;SDS011;64576;50.460;4.866;2023-05-14T13:34:51;47.95;;;26.05;;
75898;SDS011;64576;50.460;4.866;2023-05-14T13:37:16;45.97;;;24.67;;
75898;SDS011;64576;50.460;4.866;2023-05-14T13:39:41;47.20;;;24.73;;
75898;SDS011;64576;50.460;4.866;2023-05-14T13:42:07;45.35;;;24.92;;
75898;SDS011;64576;50.460;4.866;2023-05-14T13:44:32;45.13;;;25.23;;
75898;SDS011;64576;50.460;4.866;2023-05-14T13:46:57;40.35;;;24.65;;
75898;SDS011;64576;50.460;4.866;2023-05-14T13:49:23;48.90;;;24.67;;
75898;SDS011;64576;50.460;4.866;2023-05-14T13:51:48;38.30;;;23.33;;
75898;SDS011;64576;50.460;4.866;2023-05-14T13:54:14;42.55;;;23.75;;
75898;SDS011;64576;50.460;4.866;2023-05-14T13:56:39;36.13;;;23.88;;
75898;SDS011;64576;50.460;4.866;2023-05-14T13:59:05;35.47;;;20.85;;
75898;SDS011;64576;50.460;4.866;2023-05-14T14:01:30;38.05;;;23.08;;
75898;SDS011;64576;50.460;4.866;2023-05-14T14:03:56;32.45;;;20.40;;
75898;SDS011;64576;50.460;4.866;2023-05-14T14:06:21;40.30;;;21.63;;
75898;SDS011;64576;50.460;4.866;2023-05-14T14:08:47;28.20;;;18.40;;
75898;SDS011;64576;50.460;4.866;2023-05-14T14:11:12;37.88;;;19.27;;
75898;SDS011;64576;50.460;4.866;2023-05-14T14:13:38;35.33;;;20.60;;
75898;SDS011;64576;50.460;4.866;2023-05-14T14:16:04;27.23;;;18.23;;
75898;SDS011;64576;50.460;4.866;2023-05-14T14:18:30;32.42;;;20.33;;